Time;durP1;ratioP1;P1;durP2;ratioP2;P2;SDS_P1;SDS_P2;PMS_P1;PMS_P2;Temp;Humidity;BMP_temperature;BMP_pressure;BME280_temperature;BME280_humidity;BME280_pressure;Samples;Min_cycle;Max_cycle;Signal;HPM_P1;HPM_P2
2022/07/27 00:01:15;;;;;;;6.63;3.88;;;17.80;99.90;;;18.05;66.12;101948.31;5052996;28;20460;-61
2022/07/27 00:03:45;;;;;;;4.70;3.83;;;17.80;99.90;;;18.03;66.13;101960.88;5053436;28;20068;-62
2022/07/27 00:06:13;;;;;;;5.40;3.83;;;17.80;99.90;;;18.07;66.28;101950.97;5053715;28;20049;-61
2022/07/27 00:08:42;;;;;;;7.13;4.20;;;17.80;99.90;;;18.05;66.33;101956.38;5053344;28;20127;-61
2022/07/27 00:11:11;;;;;;;7.25;4.10;;;17.80;99.90;;;18.05;66.36;101945.66;5053303;28;20044;-61
2022/07/27 00:13:40;;;;;;;9.98;3.88;;;17.70;99.90;;;18.07;66.33;101945.63;5053466;28;20469;-62
2022/07/27 00:16:09;;;;;;;7.27;3.23;;;17.70;99.90;;;18.03;68.27;101955.50;5053245;28;20210;-61
2022/07/27 00:18:40;;;;;;;4.10;3.50;;;17.70;99.90;;;17.93;69.37;101953.88;5053153;28;20487;-61
2022/07/27 00:21:09;;;;;;;5.82;4.07;;;17.50;99.90;;;17.81;68.76;101946.06;5053158;28;20135;-61
2022/07/27 00:23:37;;;;;;;6.82;4.00;;;17.40;99.90;;;17.88;68.29;101955.78;5053718;28;20072;-61
2022/07/27 00:26:05;;;;;;;6.40;3.90;;;17.50;99.90;;;17.80;68.70;101946.97;5053340;28;20048;-61
2022/07/27 00:28:34;;;;;;;5.10;3.80;;;17.40;99.90;;;17.91;69.62;101955.72;5053112;28;20445;-61
2022/07/27 00:31:04;;;;;;;5.55;4.25;;;17.50;99.90;;;17.85;70.47;101958.50;5053018;28;20087;-62
2022/07/27 00:33:32;;;;;;;7.40;3.78;;;17.40;99.90;;;17.89;70.79;101960.22;5053174;28;20410;-62
2022/07/27 00:36:01;;;;;;;5.07;3.92;;;17.50;99.90;;;17.78;71.32;101949.69;5053251;28;20072;-61
2022/07/27 00:38:29;;;;;;;4.18;3.80;;;17.40;99.90;;;17.79;72.42;101947.88;5051921;28;20052;-61
2022/07/27 00:40:58;;;;;;;4.60;4.15;;;17.30;99.90;;;17.70;72.88;101951.59;5052942;28;20041;-61
2022/07/27 00:43:26;;;;;;;4.05;3.60;;;17.30;99.90;;;17.68;73.16;101952.53;5051855;28;20144;-61
2022/07/27 00:45:54;;;;;;;4.93;3.80;;;17.20;99.90;;;17.67;72.94;101950.78;5053031;28;20044;-61
2022/07/27 00:48:24;;;;;;;6.03;3.25;;;17.20;99.90;;;17.59;72.72;101950.91;5051828;28;20044;-61
2022/07/27 00:50:56;;;;;;;3.75;3.42;;;17.20;99.90;;;17.47;72.54;101951.06;5053426;28;20049;-61
2022/07/27 00:53:24;;;;;;;3.78;3.47;;;17.10;99.90;;;17.43;72.59;101941.31;5052906;28;20045;-61
2022/07/27 00:55:53;;;;;;;4.38;3.60;;;17.00;99.90;;;17.49;73.19;101945.72;5052880;28;20080;-61
2022/07/27 00:58:22;;;;;;;4.15;3.08;;;17.00;99.90;;;17.55;73.35;101943.84;5051771;28;20443;-61
2022/07/27 01:00:50;;;;;;;3.50;3.20;;;17.10;99.90;;;17.54;73.58;101941.16;5053097;28;20057;-61
2022/07/27 01:03:18;;;;;;;5.05;3.45;;;17.10;99.90;;;17.55;74.32;101945.63;5052726;28;20045;-61
2022/07/27 01:05:52;;;;;;;3.45;3.25;;;17.00;99.90;;;17.46;74.73;101935.91;5052722;28;20111;-61
2022/07/27 01:08:21;;;;;;;3.70;3.40;;;17.00;99.90;;;17.52;75.56;101941.19;5052629;28;20489;-61
2022/07/27 01:10:52;;;;;;;3.38;2.97;;;17.00;99.90;;;17.50;75.78;101934.97;5053186;28;20145;-61
2022/07/27 01:13:20;;;;;;;3.55;3.25;;;17.00;99.90;;;17.38;76.50;101932.44;5055258;28;20063;-61
2022/07/27 01:15:49;;;;;;;3.95;3.65;;;16.90;99.90;;;17.43;76.40;101933.28;5056719;28;20095;-61
2022/07/27 01:18:29;;;;;;;6.18;4.22;;;17.00;99.90;;;17.39;76.48;101930.66;5056488;28;20120;-61
2022/07/27 01:21:01;;;;;;;6.60;3.58;;;17.00;99.90;;;17.41;77.40;101932.41;5057129;28;20072;-61
2022/07/27 01:23:32;;;;;;;4.53;3.58;;;17.00;99.90;;;17.37;77.05;101925.34;5056684;28;20067;-61
2022/07/27 01:26:00;;;;;;;4.88;3.50;;;17.00;99.90;;;17.36;76.36;101934.28;5056738;28;20118;-61
2022/07/27 01:28:29;;;;;;;6.65;4.35;;;17.00;99.90;;;17.22;75.99;101908.66;5056334;28;20453;-61
2022/07/27 01:30:57;;;;;;;5.03;4.13;;;16.90;99.90;;;17.34;74.97;101932.53;5056553;28;20402;-61
2022/07/27 01:33:26;;;;;;;4.25;3.88;;;17.00;99.90;;;17.30;74.25;101937.06;5056459;28;20119;-61
2022/07/27 01:35:56;;;;;;;5.43;3.85;;;17.00;99.90;;;17.36;73.92;101933.41;5056087;28;20459;-61
2022/07/27 01:38:24;;;;;;;5.90;4.20;;;16.90;99.90;;;17.34;73.68;101935.22;5056235;28;20068;-61
2022/07/27 01:40:55;;;;;;;4.97;4.20;;;17.00;99.90;;;17.41;73.73;101939.56;5055990;28;20486;-61
2022/07/27 01:43:24;;;;;;;5.07;4.30;;;17.10;99.90;;;17.41;73.23;101921.72;5056617;28;20075;-61
2022/07/27 01:45:52;;;;;;;3.90;3.50;;;17.10;99.90;;;17.31;72.27;101890.66;5056381;28;20078;-61
2022/07/27 01:48:21;;;;;;;4.85;3.92;;;17.20;99.90;;;17.51;72.06;101933.19;5056470;28;20052;-61
2022/07/27 01:50:50;;;;;;;5.57;4.28;;;17.10;99.90;;;17.47;72.63;101926.09;5055912;28;20083;-61
2022/07/27 01:53:20;;;;;;;5.20;3.97;;;17.10;99.90;;;17.46;72.68;101925.19;5055889;28;20041;-61
2022/07/27 01:55:49;;;;;;;12.07;3.97;;;17.10;99.90;;;17.49;73.26;101924.31;5054684;28;20130;-61
2022/07/27 01:58:18;;;;;;;7.40;4.00;;;17.00;99.90;;;17.34;74.39;101911.16;5055703;28;20110;-61
2022/07/27 02:00:48;;;;;;;5.05;3.22;;;17.00;99.90;;;17.38;75.27;101920.88;5056071;28;20483;-62
2022/07/27 02:03:17;;;;;;;3.92;3.65;;;16.90;99.90;;;17.22;76.22;101925.59;5055913;28;20051;-61
2022/07/27 02:05:45;;;;;;;4.13;3.72;;;16.80;99.90;;;17.20;76.58;101921.16;5055864;28;20045;-61
2022/07/27 02:08:13;;;;;;;3.53;3.30;;;16.70;99.90;;;17.09;76.69;101919.50;5055863;28;20063;-61
2022/07/27 02:13:27;;;;;;;4.32;3.58;;;16.60;99.90;;;16.94;75.16;101914.38;5055637;28;20064;-61
2022/07/27 02:15:55;;;;;;;4.45;3.58;;;16.50;99.90;;;16.92;75.33;101921.53;5055847;28;20072;-61
2022/07/27 02:18:24;;;;;;;4.45;3.42;;;16.50;99.90;;;17.01;75.65;101916.06;5055343;28;20037;-61
2022/07/27 02:21:05;;;;;;;5.78;4.28;;;16.50;99.90;;;17.04;76.07;101916.03;5055648;28;20041;-61
2022/07/27 02:23:35;;;;;;;6.55;3.70;;;16.60;99.90;;;17.10;75.82;101917.72;5053721;28;20548;-61
2022/07/27 02:26:04;;;;;;;4.03;2.92;;;16.60;99.90;;;16.97;75.90;101906.34;5053640;28;20041;-77
2022/07/27 02:28:34;;;;;;;2.70;2.40;;;16.60;99.90;;;16.96;75.83;101903.66;5055164;28;20049;-78
2022/07/27 02:31:03;;;;;;;2.78;2.58;;;16.60;99.90;;;16.94;76.00;101908.16;5055487;28;20037;-77
2022/07/27 02:33:33;;;;;;;2.28;2.17;;;16.50;99.90;;;16.87;76.25;101906.47;5055084;28;20044;-77
2022/07/27 02:36:02;;;;;;;2.83;2.30;;;16.50;99.90;;;16.64;75.90;101881.84;5070540;28;20054;-77
2022/07/27 02:38:30;;;;;;;2.20;2.10;;;16.40;99.90;;;16.70;75.74;101908.50;5070623;28;20456;-77
2022/07/27 02:40:58;;;;;;;3.38;2.67;;;16.30;99.90;;;16.69;76.37;101907.59;5054994;28;20119;-77
2022/07/27 02:43:27;;;;;;;2.92;2.72;;;16.30;99.90;;;16.84;76.97;101912.75;5054878;28;20048;-77
2022/07/27 02:45:57;;;;;;;3.40;3.10;;;16.40;99.90;;;16.64;76.69;101895.22;5054784;28;20091;-77
2022/07/27 02:48:25;;;;;;;3.30;3.10;;;16.30;99.90;;;16.70;76.50;101904.03;5054759;28;20099;-76
2022/07/27 02:50:54;;;;;;;3.05;2.85;;;16.30;99.90;;;16.75;76.69;101914.66;5054973;28;20128;-76
2022/07/27 02:53:22;;;;;;;4.28;3.88;;;16.30;99.90;;;16.67;75.80;101909.41;5054592;28;20457;-76
2022/07/27 02:55:51;;;;;;;3.42;3.13;;;16.30;99.90;;;16.52;75.75;101893.56;5086895;28;20047;-76
2022/07/27 02:58:20;;;;;;;3.60;3.33;;;16.30;99.90;;;16.69;76.46;101904.03;5054547;28;20041;-76
2022/07/27 03:00:48;;;;;;;4.45;3.38;;;16.30;99.90;;;16.83;75.98;101911.00;5053271;28;20056;-76
2022/07/27 03:03:25;;;;;;;4.07;3.67;;;16.40;99.90;;;16.78;76.38;101896.78;5054791;28;20124;-76
2022/07/27 03:06:04;;;;;;;5.25;2.90;;;16.40;99.90;;;16.89;77.38;101902.00;5053506;28;20574;-76
2022/07/27 03:08:32;;;;;;;3.40;3.13;;;16.40;99.90;;;16.64;78.15;101896.09;5086924;28;20128;-76
2022/07/27 03:11:01;;;;;;;6.45;3.75;;;16.30;99.90;;;16.76;78.13;101906.59;5054337;28;20041;-76
2022/07/27 03:13:29;;;;;;;4.43;2.78;;;16.30;99.90;;;16.69;78.38;101918.28;5054231;28;20039;-77
2022/07/27 03:15:58;;;;;;;3.10;2.90;;;16.30;99.90;;;16.54;79.46;101865.06;5054505;28;20045;-76
2022/07/27 03:18:27;;;;;;;4.18;3.20;;;16.30;99.90;;;16.79;79.42;101892.34;5054393;28;20048;-76
2022/07/27 03:20:56;;;;;;;2.90;2.70;;;16.30;99.90;;;16.77;78.74;101910.16;5054111;28;20499;-76
2022/07/27 03:23:24;;;;;;;2.92;2.72;;;16.40;99.90;;;16.40;77.55;101876.78;5053040;28;20648;-76
2022/07/27 03:25:53;;;;;;;2.47;2.38;;;16.30;99.90;;;16.59;77.46;101900.59;5054043;28;20495;-76
2022/07/27 03:28:21;;;;;;;3.83;2.85;;;16.20;99.90;;;16.54;77.30;101902.47;5054018;28;20107;-76
2022/07/27 03:30:50;;;;;;;2.80;2.60;;;16.20;99.90;;;16.59;77.49;101900.59;5053927;28;20491;-76
2022/07/27 03:33:19;;;;;;;3.20;3.00;;;16.10;99.90;;;16.50;78.24;101867.78;5053912;28;20491;-76
2022/07/27 03:35:48;;;;;;;3.00;2.78;;;16.20;99.90;;;16.47;77.75;101890.06;5051502;28;20049;-77
2022/07/27 03:38:21;;;;;;;3.20;2.90;;;16.20;99.90;;;16.42;77.41;101891.00;5054052;28;20107;-76
2022/07/27 03:40:50;;;;;;;3.83;3.53;;;16.10;99.90;;;16.54;77.23;101905.13;5053797;28;20041;-76
2022/07/27 03:43:18;;;;;;;3.60;3.30;;;16.10;99.90;;;16.37;76.87;101887.50;5053918;28;20123;-76
2022/07/27 03:45:47;;;;;;;4.55;3.22;;;16.10;99.90;;;15.75;76.74;101784.13;5053839;28;20051;-76
2022/07/27 03:48:16;;;;;;;3.50;3.30;;;16.10;99.90;;;16.45;76.88;101904.31;5053598;28;20094;-76
2022/07/27 03:50:44;;;;;;;4.32;3.15;;;16.10;99.90;;;16.28;77.08;101888.47;5053523;28;20047;-76
2022/07/27 03:53:16;;;;;;;3.35;3.15;;;16.10;99.90;;;16.43;77.22;101895.44;5053459;28;20551;-76
2022/07/27 03:55:46;;;;;;;3.13;2.92;;;16.10;99.90;;;16.75;77.79;101923.56;5053785;28;20045;-76
2022/07/27 03:58:14;;;;;;;3.30;2.92;;;16.30;99.90;;;16.83;77.95;101919.00;5053821;28;20045;-76
2022/07/27 04:00:43;;;;;;;2.90;2.58;;;16.40;99.90;;;16.85;77.96;101921.66;5053647;28;20435;-76
2022/07/27 04:03:11;;;;;;;3.15;2.75;;;16.40;99.90;;;16.51;77.78;101848.19;5053434;28;20049;-76
2022/07/27 04:05:39;;;;;;;6.35;3.17;;;16.40;99.90;;;16.98;78.03;101920.56;5053439;28;20044;-77
2022/07/27 04:08:08;;;;;;;6.15;3.00;;;16.50;99.90;;;16.72;77.18;101875.53;5053300;28;20044;-72
2022/07/27 04:10:37;;;;;;;3.33;2.65;;;16.50;99.90;;;17.01;76.08;101909.84;5053262;28;20037;-71
2022/07/27 04:13:06;;;;;;;3.20;2.90;;;16.60;99.90;;;16.96;75.94;101880.50;5053422;28;20384;-71
2022/07/27 04:15:35;;;;;;;3.60;2.75;;;16.70;99.90;;;17.22;76.61;101917.56;5053283;28;20049;-73
2022/07/27 04:18:03;;;;;;;7.70;3.05;;;16.70;99.90;;;17.31;74.56;101916.53;5053070;28;20098;-71
2022/07/27 04:20:32;;;;;;;4.00;2.67;;;16.80;99.90;;;17.34;73.50;101908.47;5052042;28;20472;-72
2022/07/27 04:23:00;;;;;;;5.50;2.70;;;16.90;99.90;;;17.46;72.34;101919.84;5053021;28;20048;-73
2022/07/27 04:25:29;;;;;;;6.00;3.17;;;17.00;99.90;;;17.54;70.85;101926.00;5053295;28;20067;-73
2022/07/27 04:27:59;;;;;;;5.20;2.63;;;17.00;99.90;;;17.33;71.69;101880.84;5053091;28;20383;-73
2022/07/27 04:30:27;;;;;;;4.00;3.00;;;17.10;99.90;;;17.54;71.94;101907.25;5052964;28;20499;-73
2022/07/27 04:32:56;;;;;;;3.05;2.40;;;17.20;99.90;;;17.62;73.46;101902.69;5053451;28;20044;-73
2022/07/27 04:35:25;;;;;;;6.95;2.90;;;17.30;99.90;;;17.80;74.73;101920.22;5052885;28;20075;-73
2022/07/27 04:37:54;;;;;;;4.65;2.65;;;17.40;99.90;;;17.74;75.56;101905.16;5052737;28;20043;-73
2022/07/27 04:40:31;;;;;;;3.65;2.67;;;17.40;99.90;;;17.79;75.63;101939.84;5053215;28;20040;-74
2022/07/27 04:43:03;;;;;;;3.05;2.85;;;17.40;99.90;;;17.82;75.98;101934.47;5052905;28;20065;-73
2022/07/27 04:45:33;;;;;;;2.70;2.50;;;17.30;99.90;;;17.79;76.14;101908.63;5052836;28;20051;-73
2022/07/27 04:48:05;;;;;;;4.43;2.45;;;17.30;99.90;;;17.82;76.92;101924.66;5052615;28;20056;-73
2022/07/27 04:50:40;;;;;;;4.25;2.65;;;17.50;99.90;;;17.95;76.79;101936.91;5052748;28;20458;-73
2022/07/27 04:53:09;;;;;;;7.45;3.25;;;17.50;99.90;;;17.77;76.81;101917.56;5053023;28;20048;-74
2022/07/27 04:55:37;;;;;;;4.38;3.17;;;17.50;99.90;;;17.86;76.49;101936.19;5051580;28;20048;-73
2022/07/27 04:58:07;;;;;;;4.05;3.03;;;17.40;99.90;;;17.94;76.31;101942.28;5052548;28;20402;-73
2022/07/27 05:00:36;;;;;;;2.70;2.50;;;17.50;99.90;;;17.57;76.06;101911.69;5052756;28;20044;-73
2022/07/27 05:03:05;;;;;;;4.07;2.70;;;17.40;99.90;;;17.90;75.67;101945.94;5051583;28;20850;-73
2022/07/27 05:05:33;;;;;;;4.63;2.90;;;17.50;99.90;;;18.00;75.66;101947.53;5052482;28;20072;-73
2022/07/27 05:08:02;;;;;;;4.97;2.72;;;17.60;99.90;;;18.07;74.55;101927.75;5052831;28;20127;-72
2022/07/27 05:10:31;;;;;;;7.88;3.20;;;17.70;99.90;;;18.36;73.18;101956.69;5051589;28;20143;-73
2022/07/27 05:12:59;;;;;;;5.63;2.95;;;17.90;99.90;;;18.40;71.88;101953.94;5051623;28;20506;-73
2022/07/27 05:15:30;;;;;;;5.90;3.03;;;18.00;99.90;;;18.46;70.75;101956.53;5052572;28;20045;-73
2022/07/27 05:18:19;;;;;;;8.23;2.97;;;18.10;99.90;;;18.57;69.88;101938.44;5052561;28;20123;-73
2022/07/27 05:20:47;;;;;;;6.75;2.85;;;18.20;99.90;;;18.65;69.37;101935.59;5052803;28;20399;-73
2022/07/27 05:23:18;;;;;;;5.87;2.93;;;18.30;99.90;;;18.87;68.76;101959.22;5052518;28;20048;-73
2022/07/27 05:25:46;;;;;;;8.57;2.90;;;18.50;99.90;;;18.71;68.38;101957.81;5052375;28;20378;-73
2022/07/27 05:28:15;;;;;;;9.50;3.47;;;18.40;99.90;;;18.34;69.95;101959.41;5052253;28;20053;-73
2022/07/27 05:30:44;;;;;;;4.30;2.92;;;18.00;99.90;;;17.86;71.02;101957.59;5052390;28;20412;-74
2022/07/27 05:33:13;;;;;;;5.60;3.40;;;17.60;99.90;;;17.82;71.91;101955.88;5052648;28;20049;-73
2022/07/27 05:35:41;;;;;;;5.72;3.10;;;17.40;99.90;;;17.25;73.62;101839.09;5052332;28;20036;-73
2022/07/27 05:38:10;;;;;;;7.60;3.83;;;17.40;99.90;;;18.05;72.95;101967.06;5052211;28;20106;-73
2022/07/27 05:40:39;;;;;;;7.38;3.53;;;17.60;99.90;;;18.18;73.16;101970.41;5051231;28;20143;-73
2022/07/27 05:43:07;;;;;;;5.65;3.72;;;17.70;99.90;;;18.25;73.29;101967.63;5068204;28;20136;-74
2022/07/27 05:45:36;;;;;;;5.85;3.50;;;17.80;99.90;;;18.14;73.22;101969.56;5052269;28;20064;-73
2022/07/27 05:48:07;;;;;;;5.65;3.30;;;17.80;99.90;;;18.31;73.08;101972.81;5052179;28;20049;-73
2022/07/27 05:50:35;;;;;;;4.93;3.33;;;17.80;99.90;;;18.38;72.45;101973.59;5052164;28;20049;-73
2022/07/27 05:53:04;;;;;;;4.47;3.40;;;17.90;99.90;;;18.45;72.60;101975.28;5052420;28;20049;-73
2022/07/27 05:55:33;;;;;;;9.40;3.95;;;18.00;99.90;;;18.51;72.58;101991.25;5052015;28;20049;-73
2022/07/27 05:58:02;;;;;;;5.30;3.35;;;18.10;99.90;;;18.44;72.13;101971.75;5052669;28;20041;-73
2022/07/27 06:00:30;;;;;;;3.63;3.33;;;18.10;99.90;;;18.57;71.83;101984.00;5055521;28;20477;-73
2022/07/27 06:02:58;;;;;;;5.63;3.40;;;18.20;99.90;;;18.46;73.27;101985.09;5056085;28;20410;-72
2022/07/27 06:05:29;;;;;;;14.48;3.67;;;18.00;99.90;;;18.39;72.57;101980.75;5055457;28;20053;-73
2022/07/27 06:08:02;;;;;;;8.65;3.40;;;18.00;99.90;;;18.46;72.35;101993.16;5054511;28;20506;-73
2022/07/27 06:10:34;;;;;;;7.55;3.65;;;18.00;99.90;;;18.63;72.16;101994.59;5055562;28;20056;-73
2022/07/27 06:13:05;;;;;;;6.97;3.47;;;18.20;99.90;;;18.69;71.19;101990.91;5054216;28;20049;-73
2022/07/27 06:15:34;;;;;;;7.38;3.38;;;18.30;99.90;;;18.68;70.45;101979.28;5055795;28;20041;-72
2022/07/27 06:18:05;;;;;;;5.22;3.42;;;18.40;99.90;;;18.88;70.23;102003.91;5055521;28;20056;-72
2022/07/27 06:20:35;;;;;;;7.93;3.45;;;18.50;99.90;;;18.95;70.11;101993.91;5054344;28;20063;-72
2022/07/27 06:23:03;;;;;;;8.27;3.38;;;18.60;99.90;;;19.09;70.18;102002.56;5055246;28;20051;-73
2022/07/27 06:25:35;;;;;;;6.90;3.38;;;18.70;99.90;;;18.95;70.12;101974.28;5055288;28;20094;-73
2022/07/27 06:28:05;;;;;;;10.38;3.47;;;18.80;99.90;;;18.97;69.73;101988.56;5055346;28;20533;-73
2022/07/27 06:30:34;;;;;;;4.82;3.17;;;18.70;99.90;;;19.19;69.45;102016.66;5055061;28;20103;-74
2022/07/27 06:33:04;;;;;;;9.18;3.55;;;18.80;99.90;;;19.20;69.28;102007.72;5055110;28;20116;-74
2022/07/27 06:35:35;;;;;;;11.98;3.92;;;18.90;99.90;;;19.22;69.01;102019.31;5055071;28;20068;-68
2022/07/27 06:38:06;;;;;;;9.57;3.88;;;18.90;99.90;;;18.92;69.07;102018.13;5055390;28;20041;-67
2022/07/27 06:40:35;;;;;;;12.05;4.82;;;18.80;99.90;;;18.43;71.68;102002.13;5055016;28;20456;-69
2022/07/27 06:43:04;;;;;;;5.47;3.58;;;18.30;99.90;;;18.29;72.90;102008.63;5054850;28;20053;-70
2022/07/27 06:45:32;;;;;;;6.35;3.50;;;18.10;99.90;;;17.97;75.45;102017.19;5055074;28;20065;-69
2022/07/27 06:48:01;;;;;;;6.38;3.28;;;17.70;99.90;;;17.71;76.50;102016.75;5054692;28;20055;-71
2022/07/27 06:50:29;;;;;;;7.78;3.67;;;17.40;99.90;;;17.66;78.25;102013.22;5055024;28;20426;-70
2022/07/27 06:52:59;;;;;;;8.80;3.88;;;17.20;99.90;;;17.26;79.28;102012.91;5055033;28;20098;-69
2022/07/27 06:55:28;;;;;;;8.73;3.80;;;16.90;99.90;;;17.07;80.94;102016.72;5053694;28;20063;-70
2022/07/27 06:57:56;;;;;;;6.53;4.22;;;16.70;99.90;;;16.94;81.92;102005.28;5054556;28;20123;-71
2022/07/27 07:00:25;;;;;;;8.90;4.00;;;16.50;99.90;;;16.97;82.74;102007.03;5054454;28;20453;-71
2022/07/27 07:02:56;;;;;;;7.55;4.13;;;16.50;99.90;;;17.09;83.60;101982.81;5054510;28;20044;-71
2022/07/27 07:05:26;;;;;;;5.05;4.20;;;16.60;99.90;;;17.31;81.81;102005.69;5054559;28;20475;-72
2022/07/27 07:07:56;;;;;;;9.15;4.15;;;16.80;99.90;;;17.35;81.51;102022.56;5053139;28;20094;-71
2022/07/27 07:10:27;;;;;;;8.13;4.20;;;16.80;99.90;;;17.54;81.80;102019.66;5054253;28;20517;-72
2022/07/27 07:12:55;;;;;;;7.95;3.97;;;17.00;99.90;;;17.82;80.74;102015.66;5054504;28;20145;-72
2022/07/27 07:15:25;;;;;;;8.32;4.38;;;17.40;99.90;;;17.93;80.28;102015.47;5053925;28;20049;-70
2022/07/27 07:17:54;;;;;;;7.57;3.67;;;17.40;99.90;;;17.79;79.34;101991.59;5054273;28;20048;-71
2022/07/27 07:20:23;;;;;;;7.07;4.30;;;17.60;99.90;;;18.02;78.95;102008.16;5054437;28;20073;-70
2022/07/27 07:22:52;;;;;;;8.57;3.92;;;17.70;99.90;;;18.30;78.46;102053.22;5053126;28;20099;-69
2022/07/27 07:25:20;;;;;;;7.50;4.05;;;17.80;99.90;;;18.43;78.14;102028.91;5053033;28;20098;-69
2022/07/27 07:27:51;;;;;;;8.32;3.53;;;18.00;99.90;;;18.57;77.11;102029.56;5053873;28;20051;-67
2022/07/27 07:30:20;;;;;;;7.22;3.83;;;18.20;99.90;;;18.63;76.55;102017.81;5053980;28;20068;-70
2022/07/27 07:32:49;;;;;;;6.10;3.78;;;18.30;99.90;;;18.74;75.54;102032.78;5053627;28;20132;-68
2022/07/27 07:35:18;;;;;;;5.75;3.60;;;18.40;99.90;;;18.90;75.09;102007.44;5053847;28;20045;-69
2022/07/27 07:37:46;;;;;;;7.55;3.63;;;18.70;99.90;;;19.32;73.92;102039.63;5052912;28;20590;-69
2022/07/27 07:40:19;;;;;;;7.97;3.38;;;18.90;99.90;;;19.32;71.14;102032.50;5053675;28;20033;-68
2022/07/27 07:43:08;;;;;;;7.00;3.80;;;19.10;99.90;;;19.66;70.33;102049.66;5053779;28;20052;-68
2022/07/27 07:45:38;;;;;;;10.98;3.30;;;19.30;99.90;;;19.85;67.55;102051.88;5054044;28;20045;-67
2022/07/27 07:48:19;;;;;;;7.13;3.65;;;19.50;99.90;;;19.82;65.62;102019.75;5053608;28;20052;-68
2022/07/27 07:50:48;;;;;;;6.72;3.10;;;19.60;99.90;;;19.91;65.26;102055.31;5053578;28;20040;-68
2022/07/27 07:53:21;;;;;;;5.90;3.00;;;19.60;99.90;;;20.29;66.40;102038.28;5053571;28;20116;-70
2022/07/27 07:55:50;;;;;;;11.77;3.90;;;19.90;99.90;;;20.33;64.93;102029.22;5053665;28;20132;-68
2022/07/27 07:58:23;;;;;;;7.15;3.10;;;20.10;99.90;;;20.08;65.12;102038.78;5053386;28;20045;-68
2022/07/27 08:00:51;;;;;;;8.95;3.10;;;19.80;99.90;;;20.26;61.82;102012.38;5053147;28;20075;-72
2022/07/27 08:03:20;;;;;;;5.88;3.33;;;20.00;99.90;;;20.77;62.85;102034.25;5053392;28;20091;-72
2022/07/27 08:05:48;;;;;;;7.43;3.05;;;20.30;99.90;;;21.02;62.27;102048.81;5053733;28;20041;-69
2022/07/27 08:08:17;;;;;;;4.22;2.80;;;20.70;99.90;;;21.36;61.20;102041.56;5052078;28;20474;-69
2022/07/27 08:10:46;;;;;;;7.38;3.03;;;21.00;99.90;;;21.43;58.56;102026.97;5053338;28;20041;-68
2022/07/27 08:13:15;;;;;;;5.72;2.85;;;21.30;99.90;;;21.76;56.76;102051.97;5053097;28;20033;-67
2022/07/27 08:15:51;;;;;;;6.70;3.45;;;21.50;99.90;;;22.00;56.97;102059.31;5053754;28;20045;-69
2022/07/27 08:18:20;;;;;;;125.43;99.35;;;21.70;99.90;;;22.18;55.69;102055.13;5053195;28;20120;-69
2022/07/27 08:20:50;;;;;;;27.65;21.00;;;21.90;99.90;;;22.34;54.52;102057.25;5053178;28;20099;-68
2022/07/27 08:23:18;;;;;;;202.57;169.00;;;22.10;99.90;;;22.52;54.50;102060.22;5053144;28;20074;-70
2022/07/27 08:25:47;;;;;;;21.08;14.65;;;22.30;99.90;;;22.57;53.11;102058.31;5052925;28;20037;-66
2022/07/27 08:28:15;;;;;;;5.20;3.22;;;22.30;99.90;;;22.24;51.61;102055.78;5052985;28;20482;-67
2022/07/27 08:30:45;;;;;;;4.22;2.95;;;22.20;99.90;;;22.12;52.89;102064.31;5053057;28;20426;-70
2022/07/27 08:33:16;;;;;;;11.75;3.40;;;21.80;99.90;;;22.12;52.96;102068.81;5052896;28;20049;-69
2022/07/27 08:35:45;;;;;;;7.38;3.15;;;21.70;99.90;;;22.26;53.91;102070.09;5052995;28;20095;-68
2022/07/27 08:38:14;;;;;;;4.57;2.85;;;21.90;99.90;;;22.29;52.51;102078.09;5053093;28;20067;-68
2022/07/27 08:40:43;;;;;;;5.30;2.85;;;21.90;99.90;;;22.25;52.15;102057.56;5052933;28;20128;-67
2022/07/27 08:43:15;;;;;;;6.65;3.22;;;22.00;99.90;;;22.32;52.21;102075.28;5052956;28;20037;-68
2022/07/27 08:45:55;;;;;;;4.40;3.03;;;22.00;99.90;;;22.24;52.41;102071.94;5053013;28;20124;-67
2022/07/27 08:48:26;;;;;;;4.22;2.55;;;21.90;99.90;;;22.15;52.72;102074.97;5053091;28;20049;-67
2022/07/27 08:50:55;;;;;;;6.70;3.50;;;21.80;99.90;;;22.11;51.87;102069.72;5053004;28;20053;-68
2022/07/27 08:53:25;;;;;;;5.60;3.10;;;21.80;99.90;;;22.18;51.69;102055.97;5052883;28;20043;-66
2022/07/27 08:56:13;;;;;;;6.28;2.85;;;21.80;99.90;;;22.36;52.21;102066.16;5053026;28;20402;-68
2022/07/27 08:58:41;;;;;;;5.90;3.05;;;22.00;99.90;;;22.58;51.59;102071.75;5052882;28;20049;-70
2022/07/27 09:01:10;;;;;;;5.60;2.78;;;22.20;99.90;;;22.86;50.93;102077.06;5053153;28;20111;-70
2022/07/27 09:03:40;;;;;;;4.50;2.90;;;22.50;99.90;;;22.04;49.30;101984.63;5052600;28;20446;-80
2022/07/27 09:06:08;;;;;;;4.35;2.92;;;22.40;99.90;;;22.37;50.93;102064.34;5052991;28;20045;-70
2022/07/27 09:08:40;;;;;;;7.70;2.60;;;22.10;99.90;;;22.79;51.33;102072.78;5052806;28;20130;-68
2022/07/27 09:11:15;;;;;;;4.53;2.85;;;22.40;99.90;;;22.71;49.07;102062.28;5052849;28;20064;-68
2022/07/27 09:13:43;;;;;;;4.05;2.47;;;22.40;99.90;;;22.81;49.17;102060.13;5052502;28;20080;-68
2022/07/27 09:16:12;;;;;;;5.75;2.75;;;22.50;99.90;;;22.84;47.22;102050.09;5052773;28;20048;-66
2022/07/27 09:18:48;;;;;;;3.65;2.55;;;22.50;99.90;;;23.02;47.47;102062.03;5052687;28;20048;-68
2022/07/27 09:21:20;;;;;;;2.95;2.63;;;22.60;99.90;;;23.17;45.90;102067.75;5052622;28;20057;-68
2022/07/27 09:23:53;;;;;;;3.60;2.67;;;22.80;99.90;;;23.30;44.86;102049.28;5052379;28;20051;-68
2022/07/27 09:26:25;;;;;;;2.90;2.58;;;23.00;99.90;;;23.51;44.36;102071.91;5051282;28;20068;-69
2022/07/27 09:29:04;;;;;;;3.83;2.53;;;23.20;99.90;;;23.62;45.27;102067.84;5052823;28;20049;-68
2022/07/27 09:31:34;;;;;;;4.55;2.72;;;23.30;99.90;;;23.51;44.75;102043.09;5052278;28;20056;-68
2022/07/27 09:34:04;;;;;;;3.78;2.67;;;23.30;99.90;;;23.61;44.45;102067.91;5054385;28;20045;-68
2022/07/27 09:36:33;;;;;;;2.93;2.40;;;23.30;99.90;;;23.55;44.12;102065.44;5056104;28;20045;-72
2022/07/27 09:39:06;;;;;;;4.38;2.80;;;23.30;99.90;;;23.66;44.58;102068.59;5055975;28;20095;-68
2022/07/27 09:41:41;;;;;;;4.50;2.70;;;23.30;99.90;;;23.75;44.53;102061.00;5056096;28;20392;-68
2022/07/27 09:44:11;;;;;;;3.47;2.65;;;23.40;99.90;;;23.70;44.31;102060.31;5056259;28;20036;-67
2022/07/27 09:47:00;;;;;;;5.57;2.38;;;23.40;99.90;;;23.67;45.00;102062.28;5056481;28;20124;-70
2022/07/27 09:49:33;;;;;;;4.30;2.72;;;23.30;99.90;;;23.48;45.41;102050.44;5056196;28;20049;-69
2022/07/27 09:52:03;;;;;;;3.60;2.78;;;23.20;99.90;;;23.51;45.64;102069.22;5054801;28;20167;-74
2022/07/27 09:54:44;;;;;;;4.03;2.30;;;23.20;99.90;;;23.61;44.38;102057.13;5056056;28;20120;-67
2022/07/27 09:57:12;;;;;;;;;;;23.40;99.90;;;23.35;43.94;102058.13;5056269;28;20045;-67
2022/07/27 09:59:41;;;;;;;3.42;2.58;;;23.20;99.90;;;23.06;45.79;102055.59;5055698;28;19927;-65
2022/07/27 10:02:12;;;;;;;4.38;2.50;;;22.80;99.90;;;23.06;46.64;102061.88;5055970;28;20053;-67
2022/07/27 10:04:44;;;;;;;6.97;2.85;;;22.80;99.90;;;22.89;47.53;102049.94;5055813;28;20053;-67
2022/07/27 10:07:13;;;;;;;4.18;3.15;;;22.80;99.90;;;22.86;48.28;102067.13;5056055;28;20128;-66
2022/07/27 10:09:42;;;;;;;7.90;2.75;;;22.60;99.90;;;22.58;48.78;102049.25;5055786;28;20110;-67
2022/07/27 10:12:11;;;;;;;4.60;3.25;;;22.40;99.90;;;22.50;49.80;102045.91;5055393;28;20071;-65
2022/07/27 10:14:39;;;;;;;4.40;2.72;;;22.20;99.90;;;22.58;49.64;102047.47;5055261;28;20045;-66
2022/07/27 10:17:09;;;;;;;5.78;2.83;;;22.30;99.90;;;22.56;49.52;102040.31;5055209;28;20045;-66
2022/07/27 10:19:49;;;;;;;5.80;2.88;;;22.30;99.90;;;22.39;48.89;102022.94;5055460;28;20133;-64
2022/07/27 10:22:52;;;;;;;3.72;3.00;;;22.20;99.90;;;22.31;49.16;102035.78;5055839;28;20048;-65
2022/07/27 10:25:21;;;;;;;3.53;3.22;;;22.00;99.90;;;22.47;49.35;102024.47;5055243;28;20106;-67
2022/07/27 10:28:12;;;;;;;6.90;2.95;;;22.10;99.90;;;22.81;49.81;102039.41;5055267;28;20402;-66